Hanska, Minnesota
Current Conditions -  °F | °C
As of 3:54 PM on Tuesday 25 Nov 2014 (Local Time) from KULM Reporting Station
Overcast Overcast  
Wind Chill: -6°   Ceiling: 5500
Heat Index: -2°   Visibility: 10mi
Dew Point: -9°   Wind: 8mph
Humidity: 59%   Direction: 150°SSE
Pressure: 29.98"   Gusts: NA
Location:  44.15°N, 94.49°W
Report Text: KULM 252154Z AUTO 15007KT 10SM SCT050 OVC055 M02/M09 A2998 RMK AO2
Loading
Personal Weather Stations






























Interactive Weather Map New forecast layout! Learn more

10-Day Weather Forecast

Advertisements
Track Severe Weather on mobile